createdAt,value
2019-02-21T00:02:18.499Z,13.50
2019-02-21T00:05:08.540Z,11.17
2019-02-21T00:07:58.753Z,12.60
2019-02-21T00:10:49.007Z,11.73
2019-02-21T00:13:38.702Z,12.40
2019-02-21T00:16:28.447Z,12.20
2019-02-21T00:19:18.140Z,12.40
2019-02-21T00:22:08.262Z,12.00
2019-02-21T00:24:58.341Z,13.07
2019-02-21T00:27:48.027Z,13.50
2019-02-21T00:30:38.059Z,13.40
2019-02-21T00:33:28.250Z,12.70
2019-02-21T00:36:17.895Z,11.30
2019-02-21T00:39:08.240Z,11.27
2019-02-21T00:41:59.584Z,13.77
2019-02-21T00:44:49.695Z,12.30
2019-02-21T00:47:39.818Z,13.17
2019-02-21T00:50:29.580Z,13.60
2019-02-21T00:53:19.416Z,11.77
2019-02-21T00:56:09.484Z,12.50
2019-02-21T00:58:59.443Z,12.47
2019-02-21T01:01:49.296Z,12.10
2019-02-21T01:04:39.375Z,11.90
2019-02-21T01:07:29.198Z,12.20
2019-02-21T01:10:19.337Z,12.90
2019-02-21T01:13:09.022Z,12.77
2019-02-21T01:15:59.151Z,12.20
2019-02-21T01:18:49.056Z,11.90
2019-02-21T01:21:39.396Z,13.67
2019-02-21T01:24:29.578Z,12.57
2019-02-21T01:27:19.262Z,12.03
2019-02-21T01:30:09.787Z,13.33
2019-02-21T01:33:00.231Z,13.13
2019-02-21T01:35:50.349Z,12.00
2019-02-21T01:38:40.872Z,13.33
2019-02-21T01:41:30.750Z,12.63
2019-02-21T01:44:20.597Z,13.53
2019-02-21T01:47:10.810Z,13.60
2019-02-21T01:50:00.659Z,11.57
2019-02-21T01:52:50.400Z,12.30
2019-02-21T01:55:40.199Z,12.50
2019-02-21T01:58:30.068Z,13.00
2019-02-21T02:01:20.322Z,12.63
2019-02-21T02:04:10.467Z,13.00
2019-02-21T02:07:00.738Z,13.60
2019-02-21T02:09:50.486Z,13.50
2019-02-21T02:12:41.147Z,13.20
2019-02-21T02:15:31.268Z,12.50
2019-02-21T02:18:21.340Z,13.53
2019-02-21T02:21:13.802Z,14.90
2019-02-21T02:24:03.923Z,13.93
2019-02-21T02:26:54.038Z,13.03
2019-02-21T02:29:43.898Z,13.67
2019-02-21T02:32:33.767Z,13.33
2019-02-21T02:35:23.245Z,12.90
2019-02-21T02:38:13.530Z,12.23
2019-02-21T02:41:03.478Z,14.20
2019-02-21T02:43:53.214Z,13.83
2019-02-21T02:46:43.243Z,13.20
2019-02-21T02:49:33.098Z,12.83
2019-02-21T02:52:22.866Z,12.43
2019-02-21T02:55:12.799Z,13.60
2019-02-21T02:58:02.364Z,13.60
2019-02-21T03:00:52.615Z,12.47
2019-02-21T03:03:42.636Z,13.10
2019-02-21T03:06:32.697Z,12.47
2019-02-21T03:09:22.563Z,12.93
2019-02-21T03:12:12.594Z,13.40
2019-02-21T03:15:02.335Z,13.43
2019-02-21T03:17:52.396Z,13.20
2019-02-21T03:20:42.847Z,13.83
2019-02-21T03:23:32.806Z,12.57
2019-02-21T03:26:23.340Z,12.70
2019-02-21T03:29:13.236Z,13.17
2019-02-21T03:32:02.993Z,13.70
2019-02-21T03:34:52.850Z,13.33
2019-02-21T03:37:42.731Z,14.40
2019-02-21T03:40:32.148Z,13.40
2019-02-21T03:43:21.932Z,13.70
2019-02-21T03:46:11.892Z,13.33
2019-02-21T03:49:01.902Z,13.50
2019-02-21T03:51:51.949Z,13.57
2019-02-21T03:54:41.355Z,12.90
2019-02-21T03:57:31.109Z,12.37
2019-02-21T04:00:21.196Z,15.10
2019-02-21T04:03:11.488Z,15.90
2019-02-21T04:06:01.198Z,13.47
2019-02-21T04:08:51.032Z,12.37
2019-02-21T04:11:40.885Z,14.00
2019-02-21T04:14:31.402Z,13.87
2019-02-21T04:17:21.379Z,13.30
2019-02-21T04:20:11.668Z,13.20
2019-02-21T04:23:01.205Z,12.07
2019-02-21T04:25:51.099Z,13.30
2019-02-21T04:28:41.045Z,14.70
2019-02-21T04:31:31.778Z,13.27
2019-02-21T04:34:21.874Z,13.20
2019-02-21T04:37:11.491Z,13.53
2019-02-21T04:40:01.534Z,13.40
2019-02-21T04:42:51.701Z,13.80
2019-02-21T04:45:41.889Z,13.47
2019-02-21T04:48:31.514Z,13.57
2019-02-21T04:51:21.136Z,14.80
2019-02-21T04:54:10.976Z,12.70
2019-02-21T04:57:01.306Z,13.03
2019-02-21T04:59:51.462Z,13.77
2019-02-21T05:02:41.169Z,12.80
2019-02-21T05:05:30.823Z,14.60
2019-02-21T05:08:20.891Z,13.20
2019-02-21T05:11:10.944Z,13.00
2019-02-21T05:14:00.670Z,14.23
2019-02-21T05:16:50.600Z,13.33
2019-02-21T05:19:40.773Z,13.97
2019-02-21T05:22:30.701Z,13.63
2019-02-21T05:25:20.472Z,12.80
2019-02-21T05:28:28.939Z,13.87
2019-02-21T05:31:53.069Z,14.03
2019-02-21T05:34:51.341Z,13.70
2019-02-21T05:38:03.295Z,12.60
2019-02-21T05:41:15.941Z,11.80
2019-02-21T05:44:21.202Z,12.80
2019-02-21T05:47:32.812Z,14.27
2019-02-21T05:50:51.166Z,12.47
2019-02-21T05:54:17.835Z,11.80
2019-02-21T05:57:17.564Z,13.10
2019-02-21T06:00:31.040Z,13.33
2019-02-21T06:03:49.022Z,13.20
2019-02-21T06:07:13.393Z,13.00
2019-02-21T06:10:16.255Z,14.13
2019-02-21T06:13:25.547Z,13.17
2019-02-21T06:16:32.168Z,12.13
2019-02-21T06:19:38.149Z,13.27
2019-02-21T06:22:37.642Z,14.03
2019-02-21T06:25:58.915Z,14.07
2019-02-21T06:29:05.431Z,13.80
2019-02-21T06:31:54.988Z,14.50
2019-02-21T06:34:44.715Z,14.63
2019-02-21T06:37:34.438Z,15.70
2019-02-21T06:40:24.653Z,13.00
2019-02-21T06:43:14.560Z,16.17
2019-02-21T06:46:04.341Z,16.97
2019-02-21T06:48:54.005Z,15.80
2019-02-21T06:51:43.781Z,15.70
2019-02-21T06:54:33.920Z,15.70
2019-02-21T06:57:24.021Z,16.83
2019-02-21T07:00:14.588Z,14.80
2019-02-21T07:03:15.121Z,16.07
2019-02-21T07:05:56.535Z,15.37
2019-02-21T07:08:46.485Z,15.97
2019-02-21T07:11:36.274Z,15.53
2019-02-21T07:14:25.922Z,18.07
2019-02-21T07:17:15.552Z,14.80
2019-02-21T07:20:06.767Z,14.77
2019-02-21T07:22:56.862Z,17.90
2019-02-21T07:25:50.546Z,17.57
2019-02-21T07:28:41.658Z,14.90
2019-02-21T07:31:32.628Z,16.77
2019-02-21T07:34:22.734Z,16.77
2019-02-21T07:37:18.470Z,18.37
2019-02-21T07:40:03.909Z,17.13
2019-02-21T07:42:53.871Z,17.90
2019-02-21T07:45:46.891Z,17.60
2019-02-21T07:48:36.974Z,17.93
2019-02-21T07:51:26.914Z,17.90
2019-02-21T07:54:16.980Z,17.70
2019-02-21T07:57:08.597Z,18.93
2019-02-21T07:59:57.923Z,18.07
2019-02-21T08:02:48.046Z,18.10
2019-02-21T08:05:38.238Z,17.50
2019-02-21T08:08:28.598Z,19.27
2019-02-21T08:11:18.596Z,17.60
2019-02-21T08:14:08.905Z,18.23
2019-02-21T08:16:58.646Z,18.47
2019-02-21T08:19:48.145Z,17.23
2019-02-21T08:22:37.935Z,19.27
2019-02-21T08:25:27.825Z,20.50
2019-02-21T08:28:17.948Z,19.33
2019-02-21T08:31:07.999Z,19.00
2019-02-21T08:34:04.215Z,17.50
2019-02-21T08:36:52.997Z,17.30
2019-02-21T08:39:42.927Z,16.97
2019-02-21T08:42:33.094Z,18.53
2019-02-21T08:45:23.509Z,18.17
2019-02-21T08:48:13.865Z,19.63
2019-02-21T08:51:06.127Z,19.80
2019-02-21T08:53:55.143Z,18.67
2019-02-21T08:56:45.044Z,18.67
2019-02-21T08:59:35.235Z,18.13
2019-02-21T09:02:25.195Z,17.80
2019-02-21T09:05:16.440Z,19.50
2019-02-21T09:08:06.346Z,17.40
2019-02-21T09:10:56.438Z,19.10
2019-02-21T09:13:46.405Z,17.80
2019-02-21T09:16:36.623Z,17.37
2019-02-21T09:19:26.504Z,17.73
2019-02-21T09:22:16.516Z,16.70
2019-02-21T09:25:08.443Z,18.50
2019-02-21T09:27:59.830Z,17.63
2019-02-21T09:30:49.838Z,19.40
2019-02-21T09:33:40.060Z,18.10
2019-02-21T09:36:30.201Z,17.87
2019-02-21T09:39:20.238Z,18.83
2019-02-21T09:42:10.448Z,18.27
2019-02-21T09:45:00.326Z,16.67
2019-02-21T09:47:49.899Z,16.70
2019-02-21T09:50:39.535Z,19.00
2019-02-21T09:53:29.190Z,17.67
2019-02-21T09:56:29.547Z,16.60
2019-02-21T09:59:10.604Z,17.60
2019-02-21T10:02:00.162Z,18.30
2019-02-21T10:04:50.126Z,16.13
2019-02-21T10:07:40.401Z,16.50
2019-02-21T10:10:30.340Z,18.00
2019-02-21T10:13:20.253Z,17.37
2019-02-21T10:16:10.004Z,16.90
2019-02-21T10:19:00.014Z,17.03
2019-02-21T10:21:50.014Z,16.10
2019-02-21T10:24:39.707Z,17.53
2019-02-21T10:27:29.525Z,17.50
2019-02-21T10:30:20.934Z,17.83
2019-02-21T10:33:10.662Z,17.50
2019-02-21T10:36:00.733Z,17.60
2019-02-21T10:38:51.485Z,17.47
2019-02-21T10:41:41.678Z,17.73
2019-02-21T10:44:31.611Z,17.50
2019-02-21T10:47:21.352Z,17.73
2019-02-21T10:50:15.095Z,17.67
2019-02-21T10:53:05.233Z,17.87
2019-02-21T10:55:55.068Z,15.80
2019-02-21T10:58:46.155Z,17.70
2019-02-21T11:01:35.905Z,16.83
2019-02-21T11:04:26.023Z,18.17
2019-02-21T11:07:15.702Z,18.13
2019-02-21T11:10:06.153Z,17.43
2019-02-21T11:12:56.372Z,17.93
2019-02-21T11:15:46.205Z,19.27
2019-02-21T11:18:36.087Z,17.60
2019-02-21T11:21:26.107Z,15.43
2019-02-21T11:24:16.018Z,17.53
2019-02-21T11:27:06.099Z,16.50
2019-02-21T11:29:56.382Z,18.57
2019-02-21T11:32:46.329Z,15.00
2019-02-21T11:35:36.249Z,17.97
2019-02-21T11:38:26.004Z,17.57
2019-02-21T11:41:15.859Z,17.13
2019-02-21T11:44:05.935Z,16.87
2019-02-21T11:46:55.649Z,16.27
2019-02-21T11:49:45.492Z,14.80
2019-02-21T11:52:35.732Z,14.63
2019-02-21T11:55:25.542Z,15.27
2019-02-21T11:58:15.250Z,17.70
2019-02-21T12:01:08.937Z,14.90
2019-02-21T12:03:58.977Z,17.13
2019-02-21T12:06:48.823Z,15.20
2019-02-21T12:09:38.866Z,15.67
2019-02-21T12:12:30.291Z,14.23
2019-02-21T12:15:20.160Z,13.03
2019-02-21T12:18:09.848Z,15.10
2019-02-21T12:21:00.228Z,15.00
2019-02-21T12:23:50.535Z,14.03
2019-02-21T12:26:40.704Z,14.50
2019-02-21T12:29:30.608Z,14.77
2019-02-21T12:32:20.443Z,14.10
2019-02-21T12:35:10.557Z,14.47
2019-02-21T12:38:00.583Z,14.47
2019-02-21T12:40:50.564Z,13.10
2019-02-21T12:43:40.282Z,12.67
2019-02-21T12:46:31.325Z,15.03
2019-02-21T12:49:21.169Z,15.40
2019-02-21T12:52:11.434Z,13.30
2019-02-21T12:55:01.203Z,12.60
2019-02-21T12:57:51.929Z,12.90
2019-02-21T13:00:41.954Z,13.57
2019-02-21T13:03:31.796Z,12.20
2019-02-21T13:06:22.651Z,12.90
2019-02-21T13:09:12.399Z,13.07
2019-02-21T13:12:02.846Z,12.90
2019-02-21T13:14:53.865Z,12.63
2019-02-21T13:17:43.979Z,14.30
2019-02-21T13:20:33.805Z,13.00
2019-02-21T13:23:23.889Z,12.87
2019-02-21T13:26:14.275Z,12.53
2019-02-21T13:29:03.958Z,14.90
2019-02-21T13:31:54.224Z,11.83
2019-02-21T13:34:44.036Z,12.40
2019-02-21T13:37:35.211Z,10.10
2019-02-21T13:40:25.521Z,10.07
2019-02-21T13:43:15.350Z,12.53
2019-02-21T13:46:04.937Z,10.80
2019-02-21T13:48:54.430Z,10.13
2019-02-21T13:51:43.910Z,10.40
2019-02-21T13:54:34.113Z,10.83
2019-02-21T13:57:24.494Z,9.90
2019-02-21T14:00:17.152Z,11.57
2019-02-21T14:03:06.973Z,11.13
2019-02-21T14:06:03.609Z,9.30
2019-02-21T14:08:48.495Z,11.20
2019-02-21T14:11:38.597Z,10.30
2019-02-21T14:14:30.929Z,9.50
2019-02-21T14:17:21.512Z,10.10
2019-02-21T14:20:14.841Z,10.90
2019-02-21T14:23:05.007Z,10.10
2019-02-21T14:25:54.981Z,10.23
2019-02-21T14:28:44.405Z,8.80
2019-02-21T14:31:34.235Z,9.50
2019-02-21T14:34:24.409Z,9.20
2019-02-21T14:37:14.476Z,8.50
2019-02-21T14:40:04.464Z,8.30
2019-02-21T14:42:54.402Z,9.83
2019-02-21T14:45:45.616Z,8.67
2019-02-21T14:48:35.686Z,7.93
2019-02-21T14:51:25.182Z,8.97
2019-02-21T14:54:16.493Z,7.97
2019-02-21T14:57:06.656Z,8.50
2019-02-21T14:59:56.447Z,9.63
2019-02-21T15:02:46.176Z,10.33
2019-02-21T15:05:36.413Z,9.07
2019-02-21T15:08:26.408Z,9.97
2019-02-21T15:11:16.565Z,9.67
2019-02-21T15:14:05.998Z,10.50
2019-02-21T15:16:55.776Z,9.53
2019-02-21T15:19:46.004Z,12.47
2019-02-21T15:22:35.653Z,10.23
2019-02-21T15:25:25.868Z,9.73
2019-02-21T15:28:15.980Z,9.10
2019-02-21T15:31:05.703Z,9.87
2019-02-21T15:33:55.945Z,8.97
2019-02-21T15:36:46.069Z,8.53
2019-02-21T15:39:35.605Z,9.37
2019-02-21T15:42:25.411Z,9.00
2019-02-21T15:45:22.773Z,8.60
2019-02-21T15:48:09.566Z,8.20
2019-02-21T15:50:59.388Z,8.57
2019-02-21T15:53:49.342Z,7.70
2019-02-21T15:56:39.244Z,8.47
2019-02-21T15:59:28.923Z,8.17
2019-02-21T16:02:18.886Z,7.60
2019-02-21T16:05:21.204Z,8.83
2019-02-21T16:08:13.778Z,13.20
2019-02-21T16:11:05.986Z,9.37
2019-02-21T16:14:02.929Z,9.47
2019-02-21T16:16:51.206Z,8.40
2019-02-21T16:19:41.063Z,9.00
2019-02-21T16:22:31.223Z,7.80
2019-02-21T16:25:21.872Z,8.60
2019-02-21T16:28:11.645Z,8.37
2019-02-21T16:31:01.494Z,9.97
2019-02-21T16:33:51.649Z,7.73
2019-02-21T16:36:41.949Z,8.03
2019-02-21T16:39:31.640Z,9.00
2019-02-21T16:42:21.897Z,9.30
2019-02-21T16:45:13.733Z,9.87
2019-02-21T16:48:03.630Z,18.53
2019-02-21T16:50:53.357Z,11.60
2019-02-21T16:53:43.186Z,10.43
2019-02-21T16:56:33.254Z,10.90
2019-02-21T16:59:23.437Z,11.07
2019-02-21T17:02:13.555Z,10.90
2019-02-21T17:05:03.635Z,10.80
2019-02-21T17:07:53.419Z,13.17
2019-02-21T17:10:43.144Z,12.87
2019-02-21T17:13:33.269Z,13.60
2019-02-21T17:16:23.131Z,13.67
2019-02-21T17:19:16.157Z,12.20
2019-02-21T17:22:05.794Z,12.10
2019-02-21T17:24:55.717Z,12.70
2019-02-21T17:27:46.128Z,11.80
2019-02-21T17:30:35.965Z,12.10
2019-02-21T17:33:25.140Z,14.97
2019-02-21T17:36:14.373Z,11.60
2019-02-21T17:39:04.293Z,12.57
2019-02-21T17:41:55.502Z,12.37
2019-02-21T17:44:45.014Z,13.13
2019-02-21T17:47:34.859Z,12.10
2019-02-21T17:50:24.346Z,12.57
2019-02-21T17:53:14.264Z,11.60
2019-02-21T17:56:03.543Z,13.57
2019-02-21T17:58:52.922Z,13.30
2019-02-21T18:01:42.560Z,10.93
2019-02-21T18:04:32.237Z,12.40
2019-02-21T18:07:22.121Z,13.27
2019-02-21T18:10:13.004Z,10.70
2019-02-21T18:13:02.617Z,11.97
2019-02-21T18:15:52.345Z,11.97
2019-02-21T18:18:41.858Z,10.87
2019-02-21T18:21:31.399Z,10.63
2019-02-21T18:24:21.118Z,10.90
2019-02-21T18:27:11.137Z,13.30
2019-02-21T18:30:01.110Z,12.30
2019-02-21T18:32:51.729Z,13.43
2019-02-21T18:35:41.709Z,12.73
2019-02-21T18:38:31.623Z,12.50
2019-02-21T18:41:21.680Z,12.33
2019-02-21T18:44:11.978Z,11.13
2019-02-21T18:47:01.824Z,11.30
2019-02-21T18:49:54.111Z,13.07
2019-02-21T18:52:44.122Z,11.60
2019-02-21T18:55:34.328Z,11.80
2019-02-21T18:58:24.255Z,15.90
2019-02-21T19:01:14.379Z,12.77
2019-02-21T19:04:04.413Z,13.33
2019-02-21T19:06:53.448Z,14.70
2019-02-21T19:09:42.699Z,12.40
2019-02-21T19:12:32.542Z,12.17
2019-02-21T19:15:23.531Z,13.27
2019-02-21T19:18:12.844Z,13.70
2019-02-21T19:21:02.902Z,14.20
2019-02-21T19:23:52.295Z,17.00
2019-02-21T19:26:42.207Z,15.10
2019-02-21T19:29:32.064Z,14.63
2019-02-21T19:32:22.026Z,14.00
2019-02-21T19:35:11.916Z,15.47
2019-02-21T19:38:10.458Z,14.53
2019-02-21T19:40:54.520Z,17.13
2019-02-21T19:43:44.410Z,15.43
2019-02-21T19:46:33.882Z,15.00
2019-02-21T19:49:23.422Z,15.63
2019-02-21T19:52:13.079Z,16.67
2019-02-21T19:55:03.020Z,15.67
2019-02-21T19:57:53.183Z,15.80
2019-02-21T20:00:42.992Z,13.70
2019-02-21T20:03:33.383Z,16.90
2019-02-21T20:06:23.743Z,18.60
2019-02-21T20:09:15.225Z,18.17
2019-02-21T20:12:04.373Z,19.10
2019-02-21T20:14:54.381Z,17.07
2019-02-21T20:17:43.832Z,16.60
2019-02-21T20:20:33.681Z,16.00
2019-02-21T20:23:23.333Z,17.50
2019-02-21T20:26:18.373Z,17.60
2019-02-21T20:29:04.811Z,17.63
2019-02-21T20:31:54.912Z,16.97
2019-02-21T20:34:44.743Z,16.77
2019-02-21T20:37:34.325Z,17.57
2019-02-21T20:40:24.218Z,18.90
2019-02-21T20:43:14.343Z,18.70
2019-02-21T20:46:04.288Z,18.43
2019-02-21T20:48:54.220Z,16.57
2019-02-21T20:51:44.157Z,24.97
2019-02-21T20:54:33.914Z,20.50
2019-02-21T20:57:23.357Z,20.70
2019-02-21T21:00:13.487Z,21.80
2019-02-21T21:03:03.546Z,19.40
2019-02-21T21:05:53.511Z,19.93
2019-02-21T21:08:46.546Z,21.37
2019-02-21T21:11:35.019Z,22.10
2019-02-21T21:14:25.072Z,22.10
2019-02-21T21:17:15.932Z,23.43
2019-02-21T21:20:15.965Z,22.50
2019-02-21T21:22:58.943Z,22.70
2019-02-21T21:25:48.824Z,24.00
2019-02-21T21:28:38.386Z,24.27
2019-02-21T21:31:28.563Z,24.10
2019-02-21T21:34:18.329Z,24.07
2019-02-21T21:37:08.134Z,25.50
2019-02-21T21:39:58.311Z,23.93
2019-02-21T21:42:48.562Z,25.47
2019-02-21T21:45:38.709Z,25.23
2019-02-21T21:48:28.870Z,27.10
2019-02-21T21:51:19.125Z,32.20
2019-02-21T21:54:09.105Z,29.57
2019-02-21T21:56:58.902Z,29.13
2019-02-21T21:59:48.839Z,30.57
2019-02-21T22:02:38.479Z,32.43
2019-02-21T22:05:28.331Z,31.00
2019-02-21T22:08:18.433Z,30.67
2019-02-21T22:11:08.476Z,31.77
2019-02-21T22:13:58.281Z,31.57
2019-02-21T22:16:47.991Z,32.70
2019-02-21T22:19:38.161Z,33.47
2019-02-21T22:22:28.019Z,31.10
2019-02-21T22:25:17.927Z,36.27
2019-02-21T22:28:07.933Z,32.90
2019-02-21T22:30:58.242Z,29.93
2019-02-21T22:33:48.105Z,34.33
2019-02-21T22:36:37.875Z,33.60
2019-02-21T22:39:27.916Z,31.47
2019-02-21T22:42:17.894Z,32.30
2019-02-21T22:45:08.751Z,31.07
2019-02-21T22:47:58.493Z,33.93
2019-02-21T22:50:48.608Z,30.80
2019-02-21T22:53:38.190Z,29.70
2019-02-21T22:56:27.854Z,31.63
2019-02-21T22:59:17.996Z,29.50
2019-02-21T23:02:07.944Z,32.07
2019-02-21T23:05:26.554Z,36.90
2019-02-21T23:08:48.605Z,33.70
2019-02-21T23:11:38.291Z,35.20
2019-02-21T23:14:28.104Z,37.37
2019-02-21T23:17:18.307Z,32.73
2019-02-21T23:20:09.499Z,37.67
2019-02-21T23:22:59.177Z,33.37
2019-02-21T23:25:49.467Z,34.10
2019-02-21T23:28:39.757Z,34.60
2019-02-21T23:31:29.554Z,34.70
2019-02-21T23:34:27.019Z,31.47
2019-02-21T23:37:16.673Z,37.30
2019-02-21T23:40:07.402Z,35.60
2019-02-21T23:42:57.474Z,31.80
2019-02-21T23:45:47.546Z,33.63
2019-02-21T23:48:37.242Z,32.47
2019-02-21T23:51:28.052Z,33.00
2019-02-21T23:54:18.636Z,34.10
2019-02-21T23:57:08.149Z,33.60
2019-02-21T23:59:58.221Z,38.40
